createdAt,value
2023-05-24T00:03:35.036Z,20.10
2023-05-24T00:08:37.206Z,20.11
2023-05-24T00:13:39.579Z,20.09
2023-05-24T00:18:41.750Z,20.10
2023-05-24T00:23:44.313Z,20.10
2023-05-24T00:28:46.276Z,20.10
2023-05-24T00:33:48.440Z,20.11
2023-05-24T00:38:50.640Z,20.09
2023-05-24T00:43:52.618Z,20.09
2023-05-24T00:48:55.989Z,20.10
2023-05-24T00:53:58.538Z,20.10
2023-05-24T00:59:01.332Z,20.08
2023-05-24T01:04:04.310Z,20.10
2023-05-24T01:09:41.938Z,20.08
2023-05-24T01:15:10.664Z,20.09
2023-05-24T01:20:15.218Z,20.08
2023-05-24T01:25:42.079Z,20.09
2023-05-24T01:30:44.961Z,20.09
2023-05-24T01:35:47.017Z,20.08
2023-05-24T01:40:53.085Z,20.08
2023-05-24T01:46:35.123Z,20.07
2023-05-24T01:52:02.116Z,20.06
2023-05-24T01:57:08.100Z,20.07
2023-05-24T02:02:12.325Z,20.08
2023-05-24T02:07:15.662Z,20.07
2023-05-24T02:12:19.216Z,20.08
2023-05-24T02:17:21.283Z,20.06
2023-05-24T02:22:23.466Z,20.07
2023-05-24T02:27:27.618Z,20.07
2023-05-24T02:32:29.698Z,20.04
2023-05-24T02:37:32.206Z,20.08
2023-05-24T02:42:34.235Z,20.07
2023-05-24T02:47:36.355Z,20.07
2023-05-24T02:52:38.515Z,20.06
2023-05-24T02:57:41.565Z,20.05
2023-05-24T03:02:44.488Z,20.05
2023-05-24T03:07:46.805Z,20.05
2023-05-24T03:12:50.842Z,20.05
2023-05-24T03:17:53.065Z,20.04
2023-05-24T03:22:55.164Z,20.04
2023-05-24T03:27:57.218Z,20.05
2023-05-24T03:32:59.683Z,20.02
2023-05-24T03:38:02.309Z,20.03
2023-05-24T03:43:06.411Z,20.05
2023-05-24T03:48:21.695Z,20.03
2023-05-24T03:53:25.974Z,20.03
2023-05-24T03:58:29.329Z,20.02
2023-05-24T04:03:34.286Z,20.02
2023-05-24T04:08:36.676Z,20.01
2023-05-24T04:13:38.737Z,20.02
2023-05-24T04:18:40.853Z,20.02
2023-05-24T04:23:42.965Z,19.95
2023-05-24T04:28:48.815Z,20.01
2023-05-24T04:33:50.898Z,20.02
2023-05-24T04:38:56.370Z,20.00
2023-05-24T04:44:01.746Z,20.00
2023-05-24T04:49:05.779Z,19.99
2023-05-24T04:54:11.105Z,20.00
2023-05-24T04:59:13.160Z,20.00
2023-05-24T05:04:15.365Z,20.01
2023-05-24T05:09:17.524Z,20.00
2023-05-24T05:14:19.625Z,20.00
2023-05-24T05:19:21.698Z,20.00
2023-05-24T05:24:23.750Z,19.99
2023-05-24T05:29:25.872Z,19.99
2023-05-24T05:34:27.891Z,19.99
2023-05-24T05:39:32.094Z,19.98
2023-05-24T05:44:34.453Z,19.97
2023-05-24T05:49:36.736Z,19.99
2023-05-24T05:54:38.805Z,19.98
2023-05-24T05:59:40.981Z,19.99
2023-05-24T06:04:43.056Z,19.98
2023-05-24T06:09:45.164Z,19.99
2023-05-24T06:14:48.473Z,19.97
2023-05-24T06:19:53.994Z,19.98
2023-05-24T06:24:56.328Z,19.98
2023-05-24T06:29:58.355Z,19.99
2023-05-24T06:35:00.467Z,19.99
2023-05-24T06:40:02.583Z,19.99
2023-05-24T06:45:04.878Z,19.98
2023-05-24T06:50:08.704Z,19.98
2023-05-24T06:55:10.973Z,19.91
2023-05-24T07:00:13.715Z,19.97
2023-05-24T07:05:16.168Z,19.99
2023-05-24T07:10:18.331Z,19.98
2023-05-24T07:15:20.440Z,19.98
2023-05-24T07:20:22.809Z,19.99
2023-05-24T07:25:25.001Z,19.99
2023-05-24T07:30:32.190Z,19.98
2023-05-24T07:35:37.294Z,19.98
2023-05-24T07:40:39.682Z,19.92
2023-05-24T07:45:42.251Z,19.99
2023-05-24T07:50:48.846Z,19.98
2023-05-24T07:55:51.876Z,20.00
2023-05-24T08:00:54.619Z,20.00
2023-05-24T08:05:57.292Z,19.96
2023-05-24T08:10:59.403Z,19.98
2023-05-24T08:16:01.468Z,19.99
2023-05-24T08:21:03.696Z,19.98
2023-05-24T08:26:07.975Z,19.99
2023-05-24T08:31:10.075Z,19.99
2023-05-24T08:36:12.616Z,19.99
2023-05-24T08:41:14.792Z,19.99
2023-05-24T08:46:17.992Z,19.99
2023-05-24T08:51:20.720Z,20.00
2023-05-24T08:56:23.432Z,19.99
2023-05-24T09:01:27.138Z,19.99
2023-05-24T09:06:31.326Z,19.99
2023-05-24T09:11:36.884Z,20.00
2023-05-24T09:16:41.860Z,20.01
2023-05-24T09:21:44.484Z,20.01
2023-05-24T09:26:51.038Z,19.95
2023-05-24T09:31:57.169Z,20.02
2023-05-24T09:37:00.311Z,20.02
2023-05-24T09:42:03.344Z,20.02
2023-05-24T09:47:05.521Z,20.03
2023-05-24T09:52:08.274Z,20.02
2023-05-24T09:57:11.365Z,20.02
2023-05-24T10:02:13.540Z,20.03
2023-05-24T10:07:16.705Z,20.02
2023-05-24T10:12:23.381Z,20.03
2023-05-24T10:17:28.308Z,20.04
2023-05-24T10:22:32.701Z,20.04
2023-05-24T10:27:36.025Z,20.04
2023-05-24T10:32:39.477Z,20.06
2023-05-24T10:37:43.042Z,20.06
2023-05-24T10:42:45.629Z,20.02
2023-05-24T10:47:47.818Z,20.06
2023-05-24T10:52:50.111Z,20.07
2023-05-24T10:57:52.629Z,20.06
2023-05-24T11:03:02.881Z,20.05
2023-05-24T11:08:07.269Z,20.07
2023-05-24T11:13:09.384Z,20.09
2023-05-24T11:18:14.468Z,20.09
2023-05-24T11:23:17.073Z,20.09
2023-05-24T11:28:19.763Z,20.08
2023-05-24T11:33:23.874Z,20.09
2023-05-24T11:38:27.643Z,20.09
2023-05-24T11:43:31.535Z,20.10
2023-05-24T11:48:33.689Z,20.09
2023-05-24T11:53:35.777Z,20.10
2023-05-24T11:58:48.229Z,20.09
2023-05-24T12:03:52.004Z,20.12
2023-05-24T12:08:54.165Z,20.12
2023-05-24T12:13:58.310Z,20.12
2023-05-24T12:19:07.198Z,20.12
2023-05-24T12:24:21.025Z,20.13
2023-05-24T12:29:23.211Z,20.12
2023-05-24T12:34:25.407Z,20.13
2023-05-24T12:39:34.330Z,20.13
2023-05-24T12:44:38.772Z,20.11
2023-05-24T12:49:40.819Z,20.12
2023-05-24T12:54:42.880Z,20.12
2023-05-24T12:59:45.131Z,20.14
2023-05-24T13:04:47.864Z,20.07
2023-05-24T13:09:49.929Z,20.14
2023-05-24T13:14:52.972Z,20.15
2023-05-24T13:19:55.777Z,20.15
2023-05-24T13:24:58.115Z,20.17
2023-05-24T13:30:01.587Z,20.15
2023-05-24T13:35:06.668Z,20.16
2023-05-24T13:40:11.159Z,20.17
2023-05-24T13:45:13.209Z,20.16
2023-05-24T13:50:15.742Z,20.18
2023-05-24T13:55:18.751Z,20.19
2023-05-24T14:00:21.454Z,20.19
2023-05-24T14:05:27.784Z,20.18
2023-05-24T14:10:30.317Z,20.19
2023-05-24T14:15:33.376Z,20.20
2023-05-24T14:20:40.402Z,20.20
2023-05-24T14:25:43.005Z,20.20
2023-05-24T14:30:45.234Z,20.19
2023-05-24T14:35:47.388Z,20.22
2023-05-24T14:40:49.714Z,20.23
2023-05-24T14:45:52.166Z,20.22
2023-05-24T14:50:54.410Z,20.21
2023-05-24T14:55:56.447Z,20.16
2023-05-24T15:00:58.507Z,20.23
2023-05-24T15:06:00.968Z,20.23
2023-05-24T15:11:02.965Z,20.24
2023-05-24T15:16:05.095Z,20.26
2023-05-24T15:21:07.222Z,20.25
2023-05-24T15:26:09.182Z,20.26
2023-05-24T15:31:11.338Z,20.26
2023-05-24T15:36:15.657Z,20.25
2023-05-24T15:41:17.783Z,20.28
2023-05-24T15:46:23.041Z,20.26
2023-05-24T15:52:01.945Z,20.29
2023-05-24T15:56:47.058Z,20.28
2023-05-24T16:01:49.199Z,20.27
2023-05-24T16:06:51.410Z,20.19
2023-05-24T16:11:53.496Z,20.28
2023-05-24T16:16:58.602Z,20.29
2023-05-24T16:22:01.250Z,20.28
2023-05-24T16:27:03.319Z,20.29
2023-05-24T16:32:05.848Z,20.28
2023-05-24T16:37:07.927Z,20.31
2023-05-24T16:42:09.924Z,20.30
2023-05-24T16:47:12.027Z,20.32
2023-05-24T16:52:14.233Z,20.34
2023-05-24T16:57:16.601Z,20.34
2023-05-24T17:02:18.686Z,20.32
2023-05-24T17:07:20.660Z,20.34
2023-05-24T17:12:22.717Z,20.34
2023-05-24T17:17:24.794Z,20.34
2023-05-24T17:22:26.801Z,20.39
2023-05-24T17:27:28.787Z,20.31
2023-05-24T17:32:31.322Z,20.36
2023-05-24T17:37:34.696Z,20.40
2023-05-24T17:42:36.711Z,20.34
2023-05-24T17:47:38.781Z,20.40
2023-05-24T17:52:41.033Z,20.42
2023-05-24T17:57:43.107Z,20.43
2023-05-24T18:02:45.139Z,20.45
2023-05-24T18:07:47.300Z,20.42
2023-05-24T18:12:49.249Z,20.45
2023-05-24T18:17:51.613Z,20.47
2023-05-24T18:22:53.662Z,20.47
2023-05-24T18:27:55.879Z,20.44
2023-05-24T18:33:07.072Z,20.45
2023-05-24T18:38:10.265Z,20.46
2023-05-24T18:43:12.877Z,20.47
2023-05-24T18:48:14.918Z,20.45
2023-05-24T18:53:16.955Z,20.48
2023-05-24T18:58:18.963Z,20.48
2023-05-24T19:03:22.321Z,20.45
2023-05-24T19:08:24.618Z,20.46
2023-05-24T19:13:27.663Z,20.49
2023-05-24T19:18:29.774Z,20.48
2023-05-24T19:23:31.771Z,20.44
2023-05-24T19:28:37.904Z,20.46
2023-05-24T19:33:52.150Z,20.43
2023-05-24T19:39:01.831Z,20.47
2023-05-24T19:44:04.030Z,20.48
2023-05-24T19:49:06.008Z,20.46
2023-05-24T19:54:11.317Z,20.48
2023-05-24T19:59:13.352Z,20.50
2023-05-24T20:04:15.714Z,20.50
2023-05-24T20:09:19.014Z,20.45
2023-05-24T20:14:21.452Z,20.44
2023-05-24T20:19:23.900Z,20.44
2023-05-24T20:24:25.915Z,20.46
2023-05-24T20:29:28.085Z,20.50
2023-05-24T20:34:30.015Z,20.47
2023-05-24T20:39:32.079Z,20.44
2023-05-24T20:44:34.239Z,20.44
2023-05-24T20:49:36.481Z,20.46
2023-05-24T20:54:38.655Z,20.50
2023-05-24T20:59:40.718Z,20.51
2023-05-24T21:04:42.806Z,20.46
2023-05-24T21:09:44.911Z,20.48
2023-05-24T21:14:46.914Z,20.50
2023-05-24T21:19:49.024Z,20.49
2023-05-24T21:24:50.987Z,20.46
2023-05-24T21:29:53.238Z,20.42
2023-05-24T21:34:55.288Z,20.44
2023-05-24T21:39:57.332Z,20.49
2023-05-24T21:44:59.303Z,20.51
2023-05-24T21:50:01.298Z,20.45
2023-05-24T21:55:03.501Z,20.48
2023-05-24T22:00:06.097Z,20.53
2023-05-24T22:05:08.432Z,20.52
2023-05-24T22:10:12.073Z,20.47
2023-05-24T22:15:14.077Z,20.47
2023-05-24T22:20:16.282Z,20.52
2023-05-24T22:25:19.749Z,20.48
2023-05-24T22:30:22.000Z,20.46
2023-05-24T22:35:24.075Z,20.49
2023-05-24T22:40:26.202Z,20.49
2023-05-24T22:45:28.155Z,20.47
2023-05-24T22:50:30.140Z,20.47
2023-05-24T22:55:32.204Z,20.45
2023-05-24T23:00:34.298Z,20.48
2023-05-24T23:05:36.456Z,20.49
2023-05-24T23:10:46.991Z,20.48
2023-05-24T23:15:49.085Z,20.47
2023-05-24T23:20:54.386Z,20.50
2023-05-24T23:25:56.601Z,20.50
2023-05-24T23:30:58.685Z,20.47
2023-05-24T23:36:00.706Z,20.48
2023-05-24T23:41:02.800Z,20.48
2023-05-24T23:46:04.954Z,20.50
2023-05-24T23:51:07.584Z,20.39
2023-05-24T23:56:09.641Z,20.48
